createdAt,value
2023-04-04T00:00:45.298Z,80.61
2023-04-04T00:03:12.377Z,81.23
2023-04-04T00:06:01.250Z,81.15
2023-04-04T00:08:40.008Z,81.56
2023-04-04T00:11:22.824Z,81.12
2023-04-04T00:14:12.060Z,82.09
2023-04-04T00:16:56.413Z,81.62
2023-04-04T00:19:44.403Z,81.48
2023-04-04T00:22:11.577Z,82.21
2023-04-04T00:24:38.710Z,81.97
2023-04-04T00:27:05.990Z,81.66
2023-04-04T00:29:34.669Z,83.50
2023-04-04T00:32:01.727Z,82.75
2023-04-04T00:34:28.755Z,82.56
2023-04-04T00:36:55.720Z,83.69
2023-04-04T00:39:24.477Z,83.55
2023-04-04T00:41:51.782Z,83.79
2023-04-04T00:44:19.016Z,83.88
2023-04-04T00:46:46.218Z,84.35
2023-04-04T00:49:13.152Z,83.41
2023-04-04T00:51:40.139Z,85.15
2023-04-04T00:54:07.229Z,85.51
2023-04-04T00:56:37.776Z,85.06
2023-04-04T00:59:04.785Z,85.41
2023-04-04T01:01:33.336Z,85.54
2023-04-04T01:04:00.572Z,84.11
2023-04-04T01:06:56.363Z,84.53
2023-04-04T01:09:45.664Z,84.94
2023-04-04T01:12:43.041Z,83.90
2023-04-04T01:15:37.798Z,84.58
2023-04-04T01:18:23.802Z,84.63
2023-04-04T01:21:26.409Z,83.41
2023-04-04T01:24:01.567Z,83.96
2023-04-04T01:26:29.300Z,85.10
2023-04-04T01:28:57.429Z,85.75
2023-04-04T01:31:45.587Z,86.18
2023-04-04T01:34:21.224Z,85.35
2023-04-04T01:36:54.774Z,84.71
2023-04-04T01:39:35.910Z,85.40
2023-04-04T01:42:03.955Z,85.15
2023-04-04T01:44:31.369Z,86.24
2023-04-04T01:46:58.349Z,87.52
2023-04-04T01:49:25.531Z,87.30
2023-04-04T01:51:53.184Z,87.69
2023-04-04T01:54:20.236Z,86.58
2023-04-04T01:56:47.179Z,86.48
2023-04-04T01:59:14.257Z,87.96
2023-04-04T02:01:41.249Z,87.32
2023-04-04T02:04:08.850Z,87.48
2023-04-04T02:06:36.514Z,89.22
2023-04-04T02:09:03.592Z,88.43
2023-04-04T02:11:30.934Z,88.75
2023-04-04T02:13:58.784Z,88.11
2023-04-04T02:16:26.036Z,89.29
2023-04-04T02:18:53.263Z,87.78
2023-04-04T02:21:20.249Z,88.05
2023-04-04T02:23:47.209Z,88.38
2023-04-04T02:26:14.247Z,90.07
2023-04-04T02:28:41.206Z,89.58
2023-04-04T02:31:08.219Z,89.23
2023-04-04T02:33:35.236Z,89.80
2023-04-04T02:36:02.662Z,89.74
2023-04-04T02:38:29.683Z,89.09
2023-04-04T02:40:56.663Z,90.65
2023-04-04T02:43:23.672Z,89.65
2023-04-04T02:45:50.941Z,90.68
2023-04-04T02:48:17.970Z,90.23
2023-04-04T02:50:46.633Z,89.87
2023-04-04T02:53:13.828Z,90.51
2023-04-04T02:55:40.774Z,90.00
2023-04-04T02:58:07.764Z,89.68
2023-04-04T03:00:34.890Z,91.04
2023-04-04T03:03:01.977Z,89.32
2023-04-04T03:05:32.181Z,90.49
2023-04-04T03:07:59.945Z,90.34
2023-04-04T03:10:30.217Z,90.06
2023-04-04T03:12:57.793Z,90.47
2023-04-04T03:15:26.123Z,90.46
2023-04-04T03:17:53.668Z,90.04
2023-04-04T03:20:20.838Z,90.66
2023-04-04T03:22:48.238Z,89.80
2023-04-04T03:25:15.176Z,90.09
2023-04-04T03:27:42.175Z,89.85
2023-04-04T03:30:10.190Z,89.46
2023-04-04T03:32:38.292Z,89.52
2023-04-04T03:35:07.270Z,89.56
2023-04-04T03:37:34.720Z,90.98
2023-04-04T03:40:01.867Z,90.49
2023-04-04T03:42:28.833Z,90.88
2023-04-04T03:44:55.864Z,90.13
2023-04-04T03:47:22.972Z,90.52
2023-04-04T03:49:51.802Z,89.43
2023-04-04T03:52:19.070Z,89.28
2023-04-04T03:54:46.455Z,90.42
2023-04-04T03:57:13.526Z,88.97
2023-04-04T03:59:40.550Z,90.57
2023-04-04T04:02:07.582Z,89.40
2023-04-04T04:04:34.572Z,89.49
2023-04-04T04:07:02.800Z,89.20
2023-04-04T04:09:29.812Z,89.76
2023-04-04T04:11:56.911Z,88.05
2023-04-04T04:14:23.901Z,87.99
2023-04-04T04:16:50.952Z,90.23
2023-04-04T04:19:18.080Z,89.07
2023-04-04T04:21:45.141Z,88.98
2023-04-04T04:24:12.200Z,87.77
2023-04-04T04:26:39.245Z,89.71
2023-04-04T04:29:07.762Z,89.61
2023-04-04T04:31:34.746Z,88.83
2023-04-04T04:34:01.759Z,88.20
2023-04-04T04:36:28.805Z,88.56
2023-04-04T04:38:55.823Z,88.82
2023-04-04T04:41:22.897Z,87.63
2023-04-04T04:43:49.842Z,87.20
2023-04-04T04:46:16.872Z,87.35
2023-04-04T04:48:44.051Z,87.67
2023-04-04T04:51:11.094Z,88.24
2023-04-04T04:53:38.104Z,87.02
2023-04-04T04:56:05.628Z,87.88
2023-04-04T04:58:32.934Z,87.63
2023-04-04T05:00:59.988Z,86.85
2023-04-04T05:03:28.009Z,86.82
2023-04-04T05:05:55.048Z,87.05
2023-04-04T05:08:22.702Z,85.89
2023-04-04T05:10:51.145Z,85.89
2023-04-04T05:13:18.650Z,86.10
2023-04-04T05:15:47.272Z,86.63
2023-04-04T05:18:14.390Z,85.32
2023-04-04T05:20:41.890Z,86.29
2023-04-04T05:23:09.137Z,85.23
2023-04-04T05:25:36.074Z,86.60
2023-04-04T05:28:04.237Z,84.63
2023-04-04T05:30:31.219Z,85.37
2023-04-04T05:32:58.190Z,84.87
2023-04-04T05:35:26.396Z,84.62
2023-04-04T05:37:53.406Z,85.13
2023-04-04T05:40:20.801Z,86.76
2023-04-04T05:42:58.159Z,83.82
2023-04-04T05:45:26.199Z,85.38
2023-04-04T05:47:53.305Z,83.56
2023-04-04T05:50:20.329Z,83.90
2023-04-04T05:52:47.375Z,82.82
2023-04-04T05:55:14.449Z,82.43
2023-04-04T05:57:49.002Z,81.47
2023-04-04T06:00:17.565Z,80.45
2023-04-04T06:02:47.577Z,79.90
2023-04-04T06:05:15.015Z,79.53
2023-04-04T06:07:41.963Z,79.41
2023-04-04T06:10:09.617Z,78.03
2023-04-04T06:12:36.603Z,78.19
2023-04-04T06:15:03.745Z,79.31
2023-04-04T06:17:31.173Z,78.11
2023-04-04T06:19:58.152Z,78.95
2023-04-04T06:22:25.115Z,78.10
2023-04-04T06:24:52.057Z,79.75
2023-04-04T06:27:19.120Z,78.69
2023-04-04T06:29:46.040Z,77.16
2023-04-04T06:32:13.229Z,77.04
2023-04-04T06:34:40.164Z,76.26
2023-04-04T06:37:07.242Z,75.22
2023-04-04T06:39:34.660Z,74.11
2023-04-04T06:42:01.748Z,73.06
2023-04-04T06:44:28.756Z,73.85
2023-04-04T06:46:56.378Z,74.58
2023-04-04T06:49:23.409Z,74.69
2023-04-04T06:51:51.159Z,73.80
2023-04-04T06:54:18.235Z,73.64
2023-04-04T06:56:45.144Z,74.08
2023-04-04T06:59:12.894Z,73.44
2023-04-04T07:01:39.980Z,70.63
2023-04-04T07:04:06.938Z,70.25
2023-04-04T07:06:33.885Z,68.94
2023-04-04T07:09:00.853Z,68.82
2023-04-04T07:11:27.832Z,70.45
2023-04-04T07:13:54.886Z,71.00
2023-04-04T07:16:22.040Z,69.58
2023-04-04T07:18:49.081Z,70.69
2023-04-04T07:21:17.672Z,68.10
2023-04-04T07:23:44.622Z,69.37
2023-04-04T07:26:12.078Z,71.04
2023-04-04T07:28:39.050Z,68.28
2023-04-04T07:31:06.184Z,67.97
2023-04-04T07:33:33.199Z,68.61
2023-04-04T07:36:01.761Z,68.58
2023-04-04T07:38:29.136Z,68.88
2023-04-04T07:40:56.107Z,68.89
2023-04-04T07:43:23.048Z,67.24
2023-04-04T07:45:50.241Z,68.31
2023-04-04T07:48:17.462Z,65.12
2023-04-04T07:50:44.401Z,67.59
2023-04-04T07:53:11.645Z,66.47
2023-04-04T07:55:38.664Z,67.29
2023-04-04T07:58:06.247Z,66.59
2023-04-04T08:00:33.214Z,67.72
2023-04-04T08:03:01.286Z,66.17
2023-04-04T08:05:28.530Z,65.11
2023-04-04T08:07:55.547Z,65.79
2023-04-04T08:10:22.556Z,66.34
2023-04-04T08:12:49.896Z,62.46
2023-04-04T08:15:17.029Z,63.90
2023-04-04T08:17:44.095Z,63.35
2023-04-04T08:20:11.795Z,63.46
2023-04-04T08:22:40.603Z,63.12
2023-04-04T08:25:07.827Z,60.27
2023-04-04T08:27:35.114Z,59.89
2023-04-04T08:30:04.238Z,59.17
2023-04-04T08:32:32.336Z,61.54
2023-04-04T08:34:59.683Z,58.72
2023-04-04T08:37:26.706Z,58.65
2023-04-04T08:39:54.070Z,59.74
2023-04-04T08:42:23.722Z,59.83
2023-04-04T08:44:53.659Z,59.07
2023-04-04T08:47:21.813Z,58.04
2023-04-04T08:49:51.906Z,57.72
2023-04-04T08:52:20.927Z,54.40
2023-04-04T08:54:50.800Z,56.55
2023-04-04T08:57:17.802Z,56.95
2023-04-04T08:59:45.077Z,58.19
2023-04-04T09:02:12.248Z,55.39
2023-04-04T09:04:43.016Z,54.81
2023-04-04T09:07:14.874Z,56.47
2023-04-04T09:09:46.516Z,55.05
2023-04-04T09:12:15.307Z,54.65
2023-04-04T09:14:44.317Z,54.26
2023-04-04T09:17:11.405Z,54.61
2023-04-04T09:19:38.720Z,53.79
2023-04-04T09:22:11.651Z,55.68
2023-04-04T09:24:43.270Z,55.52
2023-04-04T09:27:12.061Z,53.03
2023-04-04T09:29:40.535Z,51.63
2023-04-04T09:32:15.007Z,53.02
2023-04-04T09:34:46.399Z,51.55
2023-04-04T09:37:15.804Z,51.92
2023-04-04T09:39:43.856Z,53.23
2023-04-04T09:42:12.630Z,53.33
2023-04-04T09:44:39.905Z,52.56
2023-04-04T09:47:31.041Z,53.81
2023-04-04T09:50:00.062Z,53.70
2023-04-04T09:52:27.651Z,51.75
2023-04-04T09:54:59.168Z,51.89
2023-04-04T09:57:29.547Z,53.27
2023-04-04T09:59:59.348Z,52.94
2023-04-04T10:02:27.377Z,53.95
2023-04-04T10:05:05.946Z,52.53
2023-04-04T10:07:33.977Z,52.75
2023-04-04T10:10:09.380Z,52.70
2023-04-04T10:12:39.197Z,51.49
2023-04-04T10:15:06.777Z,51.97
2023-04-04T10:17:41.304Z,51.85
2023-04-04T10:20:10.192Z,53.04
2023-04-04T10:22:39.027Z,50.51
2023-04-04T10:25:09.598Z,52.98
2023-04-04T10:27:38.928Z,53.15
2023-04-04T10:30:08.002Z,52.25
2023-04-04T10:33:04.987Z,53.53
2023-04-04T10:35:32.996Z,53.70
2023-04-04T10:38:03.301Z,54.14
2023-04-04T10:40:39.304Z,52.31
2023-04-04T10:43:07.138Z,50.43
2023-04-04T10:45:38.838Z,52.23
2023-04-04T10:48:10.548Z,52.89
2023-04-04T10:50:39.559Z,55.80
2023-04-04T10:53:08.438Z,56.47
2023-04-04T10:55:38.908Z,53.69
2023-04-04T10:58:06.654Z,54.88
2023-04-04T11:00:33.689Z,53.66
2023-04-04T11:03:02.758Z,52.17
2023-04-04T11:05:49.409Z,52.77
2023-04-04T11:08:25.430Z,53.30
2023-04-04T11:10:54.239Z,56.88
2023-04-04T11:13:26.762Z,55.84
2023-04-04T11:16:15.953Z,56.12
2023-04-04T11:18:43.741Z,54.63
2023-04-04T11:21:14.144Z,54.15
2023-04-04T11:23:50.446Z,55.85
2023-04-04T11:26:20.362Z,54.41
2023-04-04T11:28:47.452Z,53.30
2023-04-04T11:31:17.997Z,49.81
2023-04-04T11:33:58.200Z,50.51
2023-04-04T11:36:45.861Z,52.04
2023-04-04T11:39:19.995Z,50.48
2023-04-04T11:42:10.645Z,50.91
2023-04-04T11:44:50.089Z,51.66
2023-04-04T11:47:23.273Z,54.77
2023-04-04T11:49:51.955Z,51.84
2023-04-04T11:52:19.302Z,50.87
2023-04-04T11:54:47.970Z,52.04
2023-04-04T11:57:17.645Z,49.76
2023-04-04T11:59:52.555Z,54.42
2023-04-04T12:02:27.845Z,53.62
2023-04-04T12:04:55.688Z,52.89
2023-04-04T12:07:27.177Z,52.29
2023-04-04T12:09:56.122Z,52.48
2023-04-04T12:12:23.403Z,53.31
2023-04-04T12:14:50.477Z,51.85
2023-04-04T12:17:17.948Z,49.92
2023-04-04T12:19:45.166Z,51.31
2023-04-04T12:22:12.256Z,51.41
2023-04-04T12:24:39.439Z,53.14
2023-04-04T12:27:07.535Z,51.83
2023-04-04T12:29:38.488Z,52.54
2023-04-04T12:32:07.889Z,54.85
2023-04-04T12:34:36.560Z,56.03
2023-04-04T12:37:04.455Z,56.82
2023-04-04T12:39:32.165Z,57.13
2023-04-04T12:42:04.403Z,57.21
2023-04-04T12:44:34.614Z,56.53
2023-04-04T12:47:04.856Z,56.08
2023-04-04T12:49:39.721Z,58.16
2023-04-04T12:52:09.361Z,55.93
2023-04-04T12:54:40.309Z,56.44
2023-04-04T12:57:08.370Z,56.33
2023-04-04T12:59:36.957Z,56.54
2023-04-04T13:02:16.536Z,57.54
2023-04-04T13:04:48.220Z,58.12
2023-04-04T13:07:32.666Z,58.02
2023-04-04T13:10:05.855Z,59.29
2023-04-04T13:12:57.123Z,59.07
2023-04-04T13:15:44.968Z,59.25
2023-04-04T13:18:16.532Z,60.34
2023-04-04T13:20:43.635Z,59.33
2023-04-04T13:23:10.686Z,60.27
2023-04-04T13:25:38.814Z,58.77
2023-04-04T13:28:06.642Z,57.35
2023-04-04T13:30:34.374Z,57.36
2023-04-04T13:33:01.435Z,57.38
2023-04-04T13:35:28.845Z,58.89
2023-04-04T13:37:55.889Z,57.33
2023-04-04T13:40:22.834Z,54.86
2023-04-04T13:42:50.930Z,55.54
2023-04-04T13:45:18.240Z,56.48
2023-04-04T13:47:45.841Z,56.23
2023-04-04T13:50:12.909Z,56.15
2023-04-04T13:52:39.837Z,56.30
2023-04-04T13:55:07.428Z,55.53
2023-04-04T13:57:34.340Z,56.42
2023-04-04T14:00:01.344Z,55.52
2023-04-04T14:02:29.045Z,55.01
2023-04-04T14:04:55.976Z,55.20
2023-04-04T14:07:23.060Z,55.43
2023-04-04T14:09:49.998Z,56.71
2023-04-04T14:12:17.034Z,56.42
2023-04-04T14:14:44.028Z,53.99
2023-04-04T14:17:11.054Z,54.96
2023-04-04T14:19:39.320Z,53.11
2023-04-04T14:22:06.689Z,53.57
2023-04-04T14:24:33.743Z,53.15
2023-04-04T14:27:01.590Z,54.54
2023-04-04T14:29:28.577Z,52.94
2023-04-04T14:31:58.498Z,54.20
2023-04-04T14:34:28.167Z,54.73
2023-04-04T14:36:55.342Z,52.34
2023-04-04T14:39:22.560Z,54.33
2023-04-04T14:41:49.720Z,54.00
2023-04-04T14:44:16.795Z,52.45
2023-04-04T14:46:45.022Z,53.82
2023-04-04T14:49:12.067Z,52.92
2023-04-04T14:51:39.160Z,52.93
2023-04-04T14:54:06.403Z,53.08
2023-04-04T14:56:33.347Z,53.91
2023-04-04T14:59:02.185Z,53.00
2023-04-04T15:01:29.614Z,53.99
2023-04-04T15:03:57.332Z,53.76
2023-04-04T15:06:24.538Z,50.81
2023-04-04T15:08:51.567Z,53.90
2023-04-04T15:11:18.580Z,53.08
2023-04-04T15:13:45.585Z,51.97
2023-04-04T15:16:12.625Z,51.64
2023-04-04T15:18:39.614Z,52.73
2023-04-04T15:21:06.629Z,53.23
2023-04-04T15:23:33.722Z,53.00
2023-04-04T15:26:00.782Z,52.94
2023-04-04T15:28:28.778Z,55.07
2023-04-04T15:30:57.149Z,54.54
2023-04-04T15:33:24.094Z,54.21
2023-04-04T15:35:51.189Z,54.32
2023-04-04T15:38:18.215Z,54.53
2023-04-04T15:40:45.239Z,54.95
2023-04-04T15:43:12.204Z,54.98
2023-04-04T15:45:39.676Z,55.95
2023-04-04T15:48:06.876Z,54.26
2023-04-04T15:50:33.930Z,54.85
2023-04-04T15:53:01.018Z,54.94
2023-04-04T15:55:28.176Z,54.88
2023-04-04T15:57:55.085Z,54.52
2023-04-04T16:00:22.327Z,56.17
2023-04-04T16:02:49.724Z,56.17
2023-04-04T16:05:16.820Z,55.56
2023-04-04T16:07:43.967Z,55.58
2023-04-04T16:10:11.202Z,55.00
2023-04-04T16:12:38.201Z,56.42
2023-04-04T16:15:07.249Z,55.50
2023-04-04T16:17:34.570Z,56.34
2023-04-04T16:20:01.959Z,56.00
2023-04-04T16:22:29.151Z,57.37
2023-04-04T16:24:56.143Z,57.23
2023-04-04T16:27:23.281Z,56.55
2023-04-04T16:29:50.276Z,57.53
2023-04-04T16:32:17.284Z,56.39
2023-04-04T16:34:44.294Z,57.17
2023-04-04T16:37:12.246Z,56.71
2023-04-04T16:39:39.358Z,56.75
2023-04-04T16:42:06.641Z,56.00
2023-04-04T16:44:33.700Z,55.52
2023-04-04T16:47:00.826Z,54.80
2023-04-04T16:49:28.451Z,56.01
2023-04-04T16:51:55.458Z,54.91
2023-04-04T16:54:22.616Z,56.18
2023-04-04T16:56:49.544Z,56.71
2023-04-04T16:59:17.428Z,55.85
2023-04-04T17:01:44.628Z,57.18
2023-04-04T17:04:11.650Z,55.95
2023-04-04T17:06:38.702Z,57.08
2023-04-04T17:09:05.657Z,55.50
2023-04-04T17:11:32.657Z,57.28
2023-04-04T17:13:59.728Z,56.93
2023-04-04T17:16:27.134Z,56.69
2023-04-04T17:18:54.104Z,56.63
2023-04-04T17:21:21.453Z,56.82
2023-04-04T17:23:48.746Z,57.03
2023-04-04T17:26:15.715Z,56.72
2023-04-04T17:28:43.120Z,57.48
2023-04-04T17:31:10.253Z,56.00
2023-04-04T17:33:37.218Z,57.11
2023-04-04T17:36:04.284Z,57.34
2023-04-04T17:38:31.251Z,58.17
2023-04-04T17:41:04.468Z,55.80
2023-04-04T17:43:32.059Z,55.88
2023-04-04T17:45:59.069Z,55.61
2023-04-04T17:48:27.004Z,57.68
2023-04-04T17:50:54.222Z,57.16
2023-04-04T17:53:21.460Z,56.56
2023-04-04T17:55:48.547Z,57.31
2023-04-04T17:58:15.907Z,57.51
2023-04-04T18:00:43.968Z,56.96
2023-04-04T18:03:12.194Z,58.01
2023-04-04T18:05:41.069Z,58.37
2023-04-04T18:08:08.080Z,56.79
2023-04-04T18:10:35.039Z,56.73
2023-04-04T18:13:02.239Z,58.59
2023-04-04T18:15:29.783Z,57.83
2023-04-04T18:17:56.844Z,56.84
2023-04-04T18:20:34.028Z,56.78
2023-04-04T18:23:02.637Z,57.80
2023-04-04T18:25:30.385Z,57.58
2023-04-04T18:27:57.432Z,57.28
2023-04-04T18:30:24.418Z,57.93
2023-04-04T18:32:51.632Z,58.81
2023-04-04T18:35:19.160Z,58.47
2023-04-04T18:37:46.428Z,58.34
2023-04-04T18:40:13.457Z,57.92
2023-04-04T18:42:41.291Z,57.34
2023-04-04T18:45:08.732Z,59.31
2023-04-04T18:47:37.032Z,59.04
2023-04-04T18:50:04.265Z,58.75
2023-04-04T18:52:31.455Z,58.97
2023-04-04T18:54:58.485Z,58.01
2023-04-04T18:57:25.680Z,57.80
2023-04-04T18:59:52.687Z,58.62
2023-04-04T19:02:20.342Z,58.91
2023-04-04T19:04:48.402Z,60.14
2023-04-04T19:07:22.306Z,59.33
2023-04-04T19:09:50.451Z,59.10
2023-04-04T19:12:17.479Z,59.69
2023-04-04T19:15:09.255Z,61.00
2023-04-04T19:17:36.446Z,59.99
2023-04-04T19:20:03.815Z,60.90
2023-04-04T19:22:31.054Z,59.93
2023-04-04T19:24:58.120Z,60.17
2023-04-04T19:27:25.055Z,60.37
2023-04-04T19:29:54.695Z,61.00
2023-04-04T19:32:24.825Z,62.76
2023-04-04T19:34:52.229Z,63.23
2023-04-04T19:37:19.371Z,63.25
2023-04-04T19:39:46.389Z,64.74
2023-04-04T19:42:13.739Z,66.24
2023-04-04T19:44:41.597Z,65.04
2023-04-04T19:47:12.157Z,65.11
2023-04-04T19:49:39.972Z,64.12
2023-04-04T19:52:07.493Z,62.91
2023-04-04T19:54:41.628Z,64.54
2023-04-04T19:57:19.714Z,65.90
2023-04-04T20:00:01.875Z,64.91
2023-04-04T20:02:33.199Z,65.17
2023-04-04T20:05:01.013Z,64.59
2023-04-04T20:07:29.199Z,64.13
2023-04-04T20:09:56.428Z,65.17
2023-04-04T20:12:24.798Z,66.51
2023-04-04T20:14:59.256Z,66.96
2023-04-04T20:17:26.237Z,67.70
2023-04-04T20:19:53.307Z,68.98
2023-04-04T20:22:20.364Z,68.52
2023-04-04T20:24:48.428Z,70.17
2023-04-04T20:27:25.555Z,68.30
2023-04-04T20:29:56.380Z,68.63
2023-04-04T20:32:23.393Z,69.52
2023-04-04T20:34:50.891Z,69.29
2023-04-04T20:37:23.841Z,69.91
2023-04-04T20:39:59.023Z,70.91
2023-04-04T20:42:40.493Z,70.27
2023-04-04T20:45:10.540Z,69.49
2023-04-04T20:47:51.405Z,70.89
2023-04-04T20:50:18.774Z,70.55
2023-04-04T20:52:47.504Z,71.59
2023-04-04T20:55:14.546Z,71.11
2023-04-04T20:57:41.535Z,70.92
2023-04-04T21:00:39.380Z,72.07
2023-04-04T21:03:31.101Z,72.56
2023-04-04T21:06:18.513Z,72.08
2023-04-04T21:08:50.273Z,72.79
2023-04-04T21:11:30.289Z,73.81
2023-04-04T21:13:57.632Z,71.79
2023-04-04T21:16:27.153Z,73.74
2023-04-04T21:18:58.753Z,73.70
2023-04-04T21:21:26.542Z,74.81
2023-04-04T21:23:57.555Z,75.75
2023-04-04T21:26:33.314Z,76.49
2023-04-04T21:29:06.097Z,77.17
2023-04-04T21:31:41.230Z,78.00
2023-04-04T21:34:13.912Z,76.91
2023-04-04T21:36:41.412Z,78.76
2023-04-04T21:39:25.823Z,80.51
2023-04-04T21:41:56.919Z,80.45
2023-04-04T21:44:24.891Z,81.57
2023-04-04T21:46:54.601Z,82.49
2023-04-04T21:49:21.789Z,82.11
2023-04-04T21:51:48.768Z,83.88
2023-04-04T21:54:15.728Z,82.69
2023-04-04T21:56:42.812Z,81.11
2023-04-04T21:59:10.471Z,80.74
2023-04-04T22:01:38.619Z,82.06
2023-04-04T22:04:05.912Z,80.10
2023-04-04T22:06:32.986Z,78.34
2023-04-04T22:09:02.068Z,78.88
2023-04-04T22:11:29.613Z,78.92
2023-04-04T22:14:03.800Z,78.88
2023-04-04T22:16:32.038Z,79.63
2023-04-04T22:18:59.339Z,81.93
2023-04-04T22:21:28.028Z,83.15
2023-04-04T22:24:01.109Z,82.63
2023-04-04T22:26:34.915Z,82.99
2023-04-04T22:29:03.853Z,83.45
2023-04-04T22:31:31.493Z,84.19
2023-04-04T22:33:58.520Z,83.70
2023-04-04T22:36:25.574Z,83.23
2023-04-04T22:38:57.425Z,83.40
2023-04-04T22:41:27.954Z,84.41
2023-04-04T22:43:55.694Z,84.91
2023-04-04T22:46:22.773Z,85.04
2023-04-04T22:48:49.873Z,84.61
2023-04-04T22:51:16.828Z,83.73
2023-04-04T22:53:44.609Z,83.42
2023-04-04T22:56:12.044Z,84.01
2023-04-04T22:58:39.048Z,84.23
2023-04-04T23:01:06.578Z,83.57
2023-04-04T23:03:34.062Z,82.92
2023-04-04T23:06:01.027Z,83.31
2023-04-04T23:08:28.024Z,83.18
2023-04-04T23:10:54.947Z,82.35
2023-04-04T23:13:22.411Z,83.10
2023-04-04T23:15:49.633Z,84.59
2023-04-04T23:18:16.660Z,85.08
2023-04-04T23:20:43.808Z,84.31
2023-04-04T23:23:10.940Z,83.84
2023-04-04T23:25:37.884Z,82.81
2023-04-04T23:28:04.927Z,82.53
2023-04-04T23:30:32.496Z,84.76
2023-04-04T23:32:59.499Z,84.57
2023-04-04T23:35:26.695Z,85.89
2023-04-04T23:37:53.614Z,84.78
2023-04-04T23:40:20.625Z,85.20
2023-04-04T23:42:47.592Z,86.17
2023-04-04T23:45:14.886Z,86.70
2023-04-04T23:47:42.081Z,87.39
2023-04-04T23:50:10.057Z,87.08
2023-04-04T23:52:37.716Z,86.54
2023-04-04T23:55:05.297Z,85.23
2023-04-04T23:57:32.246Z,85.19
2023-04-04T23:59:59.315Z,84.80
